sensor_id;sensor_type;location;lat;lon;timestamp;P1;durP1;ratioP1;P2;durP2;ratioP2
79005;SDS011;69202;45.498;-73.582;2023-05-14T00:02:19;4.05;;;1.40;;
79005;SDS011;69202;45.498;-73.582;2023-05-14T00:04:45;3.28;;;1.92;;
79005;SDS011;69202;45.498;-73.582;2023-05-14T00:07:11;2.78;;;1.30;;
79005;SDS011;69202;45.498;-73.582;2023-05-14T00:09:37;5.78;;;1.35;;
79005;SDS011;69202;45.498;-73.582;2023-05-14T00:12:03;7.85;;;2.00;;
79005;SDS011;69202;45.498;-73.582;2023-05-14T00:14:29;8.52;;;1.90;;
79005;SDS011;69202;45.498;-73.582;2023-05-14T00:16:56;2.65;;;1.60;;
79005;SDS011;69202;45.498;-73.582;2023-05-14T00:19:22;5.40;;;1.83;;
79005;SDS011;69202;45.498;-73.582;2023-05-14T00:21:48;5.40;;;2.33;;
79005;SDS011;69202;45.498;-73.582;2023-05-14T00:24:14;7.18;;;1.50;;
79005;SDS011;69202;45.498;-73.582;2023-05-14T00:26:40;6.72;;;1.80;;
79005;SDS011;69202;45.498;-73.582;2023-05-14T00:29:05;2.92;;;1.65;;
79005;SDS011;69202;45.498;-73.582;2023-05-14T00:31:31;9.25;;;1.50;;
79005;SDS011;69202;45.498;-73.582;2023-05-14T00:33:57;9.73;;;1.75;;
79005;SDS011;69202;45.498;-73.582;2023-05-14T00:36:23;11.55;;;1.83;;
79005;SDS011;69202;45.498;-73.582;2023-05-14T00:38:49;5.13;;;1.77;;
79005;SDS011;69202;45.498;-73.582;2023-05-14T00:41:15;8.73;;;1.65;;
79005;SDS011;69202;45.498;-73.582;2023-05-14T00:43:41;7.72;;;1.75;;
79005;SDS011;69202;45.498;-73.582;2023-05-14T00:46:07;6.30;;;1.77;;
79005;SDS011;69202;45.498;-73.582;2023-05-14T00:48:33;6.10;;;1.70;;
79005;SDS011;69202;45.498;-73.582;2023-05-14T00:50:59;8.00;;;2.28;;
79005;SDS011;69202;45.498;-73.582;2023-05-14T00:53:25;4.28;;;1.48;;
79005;SDS011;69202;45.498;-73.582;2023-05-14T00:55:52;5.65;;;1.67;;
79005;SDS011;69202;45.498;-73.582;2023-05-14T00:58:18;8.13;;;1.65;;
79005;SDS011;69202;45.498;-73.582;2023-05-14T01:00:44;2.58;;;1.70;;
79005;SDS011;69202;45.498;-73.582;2023-05-14T01:03:10;5.60;;;2.10;;
79005;SDS011;69202;45.498;-73.582;2023-05-14T01:11:18;7.07;;;1.92;;
79005;SDS011;69202;45.498;-73.582;2023-05-14T01:13:55;3.17;;;1.63;;
79005;SDS011;69202;45.498;-73.582;2023-05-14T01:16:29;2.08;;;1.70;;
79005;SDS011;69202;45.498;-73.582;2023-05-14T01:18:58;8.35;;;1.90;;
79005;SDS011;69202;45.498;-73.582;2023-05-14T01:21:38;2.78;;;1.70;;
79005;SDS011;69202;45.498;-73.582;2023-05-14T01:24:07;2.05;;;1.40;;
79005;SDS011;69202;45.498;-73.582;2023-05-14T01:26:34;4.18;;;1.63;;
79005;SDS011;69202;45.498;-73.582;2023-05-14T01:29:03;2.30;;;1.40;;
79005;SDS011;69202;45.498;-73.582;2023-05-14T01:31:38;3.42;;;1.40;;
79005;SDS011;69202;45.498;-73.582;2023-05-14T01:34:07;1.70;;;1.40;;
79005;SDS011;69202;45.498;-73.582;2023-05-14T01:36:34;6.97;;;1.70;;
79005;SDS011;69202;45.498;-73.582;2023-05-14T01:39:00;2.67;;;1.50;;
79005;SDS011;69202;45.498;-73.582;2023-05-14T01:41:27;5.13;;;1.40;;
79005;SDS011;69202;45.498;-73.582;2023-05-14T01:43:55;2.90;;;1.30;;
79005;SDS011;69202;45.498;-73.582;2023-05-14T01:46:21;2.53;;;1.10;;
79005;SDS011;69202;45.498;-73.582;2023-05-14T01:48:49;2.78;;;1.45;;
79005;SDS011;69202;45.498;-73.582;2023-05-14T01:51:15;4.47;;;1.70;;
79005;SDS011;69202;45.498;-73.582;2023-05-14T01:53:41;7.28;;;1.60;;
79005;SDS011;69202;45.498;-73.582;2023-05-14T01:56:07;1.70;;;1.42;;
79005;SDS011;69202;45.498;-73.582;2023-05-14T01:58:33;2.70;;;1.60;;
79005;SDS011;69202;45.498;-73.582;2023-05-14T02:00:59;3.17;;;1.48;;
79005;SDS011;69202;45.498;-73.582;2023-05-14T02:03:25;4.85;;;1.40;;
79005;SDS011;69202;45.498;-73.582;2023-05-14T02:05:50;2.38;;;1.30;;
79005;SDS011;69202;45.498;-73.582;2023-05-14T02:08:16;1.95;;;1.55;;
79005;SDS011;69202;45.498;-73.582;2023-05-14T02:10:42;3.50;;;1.55;;
79005;SDS011;69202;45.498;-73.582;2023-05-14T02:13:08;4.20;;;1.40;;
79005;SDS011;69202;45.498;-73.582;2023-05-14T02:15:34;2.33;;;1.50;;
79005;SDS011;69202;45.498;-73.582;2023-05-14T02:18:00;2.47;;;1.30;;
79005;SDS011;69202;45.498;-73.582;2023-05-14T02:20:26;3.75;;;1.30;;
79005;SDS011;69202;45.498;-73.582;2023-05-14T02:22:52;4.00;;;1.20;;
79005;SDS011;69202;45.498;-73.582;2023-05-14T02:25:17;2.67;;;1.48;;
79005;SDS011;69202;45.498;-73.582;2023-05-14T02:27:43;2.83;;;1.25;;
79005;SDS011;69202;45.498;-73.582;2023-05-14T02:30:09;2.92;;;1.05;;
79005;SDS011;69202;45.498;-73.582;2023-05-14T02:32:35;3.25;;;1.38;;
79005;SDS011;69202;45.498;-73.582;2023-05-14T02:35:01;2.03;;;1.20;;
79005;SDS011;69202;45.498;-73.582;2023-05-14T02:37:27;2.10;;;1.20;;
79005;SDS011;69202;45.498;-73.582;2023-05-14T02:39:53;5.60;;;1.20;;
79005;SDS011;69202;45.498;-73.582;2023-05-14T02:42:19;3.15;;;1.25;;
79005;SDS011;69202;45.498;-73.582;2023-05-14T02:44:45;1.95;;;1.23;;
79005;SDS011;69202;45.498;-73.582;2023-05-14T02:47:11;2.38;;;1.20;;
79005;SDS011;69202;45.498;-73.582;2023-05-14T02:49:37;6.85;;;1.70;;
79005;SDS011;69202;45.498;-73.582;2023-05-14T02:52:04;4.72;;;1.20;;
79005;SDS011;69202;45.498;-73.582;2023-05-14T02:54:30;3.47;;;1.30;;
79005;SDS011;69202;45.498;-73.582;2023-05-14T02:56:56;1.17;;;1.08;;
79005;SDS011;69202;45.498;-73.582;2023-05-14T02:59:22;2.22;;;1.20;;
79005;SDS011;69202;45.498;-73.582;2023-05-14T03:01:49;3.33;;;1.65;;
79005;SDS011;69202;45.498;-73.582;2023-05-14T03:04:15;4.50;;;1.40;;
79005;SDS011;69202;45.498;-73.582;2023-05-14T03:06:40;3.13;;;1.08;;
79005;SDS011;69202;45.498;-73.582;2023-05-14T03:09:06;1.60;;;1.08;;
79005;SDS011;69202;45.498;-73.582;2023-05-14T03:11:32;1.63;;;0.98;;
79005;SDS011;69202;45.498;-73.582;2023-05-14T03:13:58;2.33;;;1.50;;
79005;SDS011;69202;45.498;-73.582;2023-05-14T03:16:24;3.97;;;1.15;;
79005;SDS011;69202;45.498;-73.582;2023-05-14T03:18:50;1.92;;;1.10;;
79005;SDS011;69202;45.498;-73.582;2023-05-14T03:21:16;3.97;;;1.20;;
79005;SDS011;69202;45.498;-73.582;2023-05-14T03:23:42;3.28;;;1.13;;
79005;SDS011;69202;45.498;-73.582;2023-05-14T03:26:08;3.40;;;1.20;;
79005;SDS011;69202;45.498;-73.582;2023-05-14T03:28:34;3.00;;;1.02;;
79005;SDS011;69202;45.498;-73.582;2023-05-14T03:31:00;1.77;;;1.10;;
79005;SDS011;69202;45.498;-73.582;2023-05-14T03:33:26;2.45;;;1.20;;
79005;SDS011;69202;45.498;-73.582;2023-05-14T03:35:52;4.22;;;1.50;;
79005;SDS011;69202;45.498;-73.582;2023-05-14T03:38:18;1.80;;;1.30;;
79005;SDS011;69202;45.498;-73.582;2023-05-14T03:40:44;13.05;;;1.80;;
79005;SDS011;69202;45.498;-73.582;2023-05-14T03:43:10;3.28;;;1.23;;
79005;SDS011;69202;45.498;-73.582;2023-05-14T03:45:36;2.45;;;1.30;;
79005;SDS011;69202;45.498;-73.582;2023-05-14T03:48:02;4.60;;;0.80;;
79005;SDS011;69202;45.498;-73.582;2023-05-14T03:50:28;3.72;;;1.35;;
79005;SDS011;69202;45.498;-73.582;2023-05-14T03:52:54;2.17;;;0.90;;
79005;SDS011;69202;45.498;-73.582;2023-05-14T03:55:20;4.18;;;1.15;;
79005;SDS011;69202;45.498;-73.582;2023-05-14T03:57:46;1.80;;;1.35;;
79005;SDS011;69202;45.498;-73.582;2023-05-14T04:00:13;2.20;;;0.93;;
79005;SDS011;69202;45.498;-73.582;2023-05-14T04:02:39;3.03;;;1.10;;
79005;SDS011;69202;45.498;-73.582;2023-05-14T04:05:05;1.10;;;1.00;;
79005;SDS011;69202;45.498;-73.582;2023-05-14T04:07:31;2.05;;;1.02;;
79005;SDS011;69202;45.498;-73.582;2023-05-14T04:09:57;2.28;;;1.20;;
79005;SDS011;69202;45.498;-73.582;2023-05-14T04:12:24;2.17;;;1.10;;
79005;SDS011;69202;45.498;-73.582;2023-05-14T04:14:51;1.90;;;1.05;;
79005;SDS011;69202;45.498;-73.582;2023-05-14T04:17:17;4.18;;;1.30;;
79005;SDS011;69202;45.498;-73.582;2023-05-14T04:19:43;2.15;;;1.15;;
79005;SDS011;69202;45.498;-73.582;2023-05-14T04:22:09;2.15;;;1.10;;
79005;SDS011;69202;45.498;-73.582;2023-05-14T04:24:35;4.75;;;1.50;;
79005;SDS011;69202;45.498;-73.582;2023-05-14T04:27:01;2.47;;;1.20;;
79005;SDS011;69202;45.498;-73.582;2023-05-14T04:29:27;4.25;;;1.10;;
79005;SDS011;69202;45.498;-73.582;2023-05-14T04:31:53;2.80;;;1.00;;
79005;SDS011;69202;45.498;-73.582;2023-05-14T04:34:19;4.05;;;1.00;;
79005;SDS011;69202;45.498;-73.582;2023-05-14T04:36:44;2.13;;;1.17;;
79005;SDS011;69202;45.498;-73.582;2023-05-14T04:39:10;1.70;;;1.00;;
79005;SDS011;69202;45.498;-73.582;2023-05-14T04:41:36;3.25;;;0.93;;
79005;SDS011;69202;45.498;-73.582;2023-05-14T04:44:02;2.97;;;1.10;;
79005;SDS011;69202;45.498;-73.582;2023-05-14T04:46:29;1.67;;;0.95;;
79005;SDS011;69202;45.498;-73.582;2023-05-14T04:48:55;3.22;;;1.15;;
79005;SDS011;69202;45.498;-73.582;2023-05-14T04:51:21;2.97;;;0.93;;
79005;SDS011;69202;45.498;-73.582;2023-05-14T04:53:47;2.13;;;1.00;;
79005;SDS011;69202;45.498;-73.582;2023-05-14T04:56:13;1.10;;;0.90;;
79005;SDS011;69202;45.498;-73.582;2023-05-14T04:58:39;1.20;;;0.90;;
79005;SDS011;69202;45.498;-73.582;2023-05-14T05:01:05;5.40;;;1.20;;
79005;SDS011;69202;45.498;-73.582;2023-05-14T05:03:31;1.08;;;0.95;;
79005;SDS011;69202;45.498;-73.582;2023-05-14T05:05:57;3.05;;;0.90;;
79005;SDS011;69202;45.498;-73.582;2023-05-14T05:08:23;4.60;;;0.93;;
79005;SDS011;69202;45.498;-73.582;2023-05-14T05:10:49;2.35;;;1.08;;
79005;SDS011;69202;45.498;-73.582;2023-05-14T05:13:14;1.70;;;0.90;;
79005;SDS011;69202;45.498;-73.582;2023-05-14T05:15:41;1.00;;;0.82;;
79005;SDS011;69202;45.498;-73.582;2023-05-14T05:18:07;1.30;;;0.90;;
79005;SDS011;69202;45.498;-73.582;2023-05-14T05:20:33;1.08;;;0.98;;
79005;SDS011;69202;45.498;-73.582;2023-05-14T05:22:59;1.60;;;1.20;;
79005;SDS011;69202;45.498;-73.582;2023-05-14T05:25:26;1.30;;;1.10;;
79005;SDS011;69202;45.498;-73.582;2023-05-14T05:27:52;1.05;;;0.90;;
79005;SDS011;69202;45.498;-73.582;2023-05-14T05:30:18;2.28;;;0.90;;
79005;SDS011;69202;45.498;-73.582;2023-05-14T05:32:44;2.35;;;1.00;;
79005;SDS011;69202;45.498;-73.582;2023-05-14T05:35:10;1.95;;;0.93;;
79005;SDS011;69202;45.498;-73.582;2023-05-14T05:37:35;2.00;;;1.08;;
79005;SDS011;69202;45.498;-73.582;2023-05-14T05:40:02;1.60;;;1.02;;
79005;SDS011;69202;45.498;-73.582;2023-05-14T05:42:28;0.90;;;0.70;;
79005;SDS011;69202;45.498;-73.582;2023-05-14T05:44:54;2.05;;;1.02;;
79005;SDS011;69202;45.498;-73.582;2023-05-14T05:47:20;3.25;;;0.93;;
79005;SDS011;69202;45.498;-73.582;2023-05-14T05:49:46;1.63;;;1.27;;
79005;SDS011;69202;45.498;-73.582;2023-05-14T05:52:12;0.85;;;0.80;;
79005;SDS011;69202;45.498;-73.582;2023-05-14T05:54:38;1.42;;;0.82;;
79005;SDS011;69202;45.498;-73.582;2023-05-14T05:57:04;1.25;;;0.90;;
79005;SDS011;69202;45.498;-73.582;2023-05-14T05:59:30;3.47;;;1.05;;
79005;SDS011;69202;45.498;-73.582;2023-05-14T06:01:56;0.95;;;0.80;;
79005;SDS011;69202;45.498;-73.582;2023-05-14T06:04:22;4.47;;;1.10;;
79005;SDS011;69202;45.498;-73.582;2023-05-14T06:06:48;1.13;;;0.90;;
79005;SDS011;69202;45.498;-73.582;2023-05-14T06:09:13;1.02;;;0.82;;
79005;SDS011;69202;45.498;-73.582;2023-05-14T06:11:40;3.17;;;0.80;;
79005;SDS011;69202;45.498;-73.582;2023-05-14T06:14:06;1.23;;;1.08;;
79005;SDS011;69202;45.498;-73.582;2023-05-14T06:16:31;1.20;;;0.98;;
79005;SDS011;69202;45.498;-73.582;2023-05-14T06:18:57;0.70;;;0.70;;
79005;SDS011;69202;45.498;-73.582;2023-05-14T06:21:23;2.13;;;0.80;;
79005;SDS011;69202;45.498;-73.582;2023-05-14T06:23:49;1.50;;;0.80;;
79005;SDS011;69202;45.498;-73.582;2023-05-14T06:26:15;2.53;;;1.00;;
79005;SDS011;69202;45.498;-73.582;2023-05-14T06:28:41;1.35;;;1.00;;
79005;SDS011;69202;45.498;-73.582;2023-05-14T06:31:07;1.58;;;0.88;;
79005;SDS011;69202;45.498;-73.582;2023-05-14T06:33:33;3.30;;;0.82;;
79005;SDS011;69202;45.498;-73.582;2023-05-14T06:35:59;2.22;;;1.00;;
79005;SDS011;69202;45.498;-73.582;2023-05-14T06:38:28;2.70;;;1.10;;
79005;SDS011;69202;45.498;-73.582;2023-05-14T06:40:54;1.88;;;0.93;;
79005;SDS011;69202;45.498;-73.582;2023-05-14T06:43:20;1.25;;;0.90;;
79005;SDS011;69202;45.498;-73.582;2023-05-14T06:45:50;0.90;;;0.73;;
79005;SDS011;69202;45.498;-73.582;2023-05-14T06:48:16;0.68;;;0.68;;
79005;SDS011;69202;45.498;-73.582;2023-05-14T06:50:43;1.20;;;0.75;;
79005;SDS011;69202;45.498;-73.582;2023-05-14T06:53:10;1.73;;;0.70;;
79005;SDS011;69202;45.498;-73.582;2023-05-14T06:55:36;1.33;;;1.10;;
79005;SDS011;69202;45.498;-73.582;2023-05-14T06:58:02;1.10;;;0.73;;
79005;SDS011;69202;45.498;-73.582;2023-05-14T07:00:30;1.05;;;0.65;;
79005;SDS011;69202;45.498;-73.582;2023-05-14T07:02:56;5.47;;;0.80;;
79005;SDS011;69202;45.498;-73.582;2023-05-14T07:05:23;0.80;;;0.70;;
79005;SDS011;69202;45.498;-73.582;2023-05-14T07:07:49;1.30;;;0.85;;
79005;SDS011;69202;45.498;-73.582;2023-05-14T07:10:15;1.63;;;0.75;;
79005;SDS011;69202;45.498;-73.582;2023-05-14T07:12:41;0.82;;;0.70;;
79005;SDS011;69202;45.498;-73.582;2023-05-14T07:15:07;1.13;;;0.52;;
79005;SDS011;69202;45.498;-73.582;2023-05-14T07:17:34;1.35;;;0.80;;
79005;SDS011;69202;45.498;-73.582;2023-05-14T07:20:00;0.68;;;0.68;;
79005;SDS011;69202;45.498;-73.582;2023-05-14T07:22:26;0.68;;;0.60;;
79005;SDS011;69202;45.498;-73.582;2023-05-14T07:24:52;0.73;;;0.68;;
79005;SDS011;69202;45.498;-73.582;2023-05-14T07:27:17;0.90;;;0.80;;
79005;SDS011;69202;45.498;-73.582;2023-05-14T07:29:43;0.60;;;0.50;;
79005;SDS011;69202;45.498;-73.582;2023-05-14T07:32:09;0.95;;;0.73;;
79005;SDS011;69202;45.498;-73.582;2023-05-14T07:34:35;1.70;;;0.60;;
79005;SDS011;69202;45.498;-73.582;2023-05-14T07:37:01;1.02;;;0.70;;
79005;SDS011;69202;45.498;-73.582;2023-05-14T07:39:27;0.63;;;0.60;;
79005;SDS011;69202;45.498;-73.582;2023-05-14T07:41:53;0.70;;;0.60;;
79005;SDS011;69202;45.498;-73.582;2023-05-14T07:44:19;0.82;;;0.70;;
79005;SDS011;69202;45.498;-73.582;2023-05-14T07:46:46;0.50;;;0.50;;
79005;SDS011;69202;45.498;-73.582;2023-05-14T07:49:12;1.35;;;0.93;;
79005;SDS011;69202;45.498;-73.582;2023-05-14T07:51:38;1.15;;;0.60;;
79005;SDS011;69202;45.498;-73.582;2023-05-14T07:54:03;0.77;;;0.50;;
79005;SDS011;69202;45.498;-73.582;2023-05-14T07:56:30;0.65;;;0.55;;
79005;SDS011;69202;45.498;-73.582;2023-05-14T07:58:55;0.70;;;0.47;;
79005;SDS011;69202;45.498;-73.582;2023-05-14T08:01:21;1.15;;;0.63;;
79005;SDS011;69202;45.498;-73.582;2023-05-14T08:03:47;0.80;;;0.68;;
79005;SDS011;69202;45.498;-73.582;2023-05-14T08:06:13;0.90;;;0.57;;
79005;SDS011;69202;45.498;-73.582;2023-05-14T08:08:40;0.60;;;0.50;;
79005;SDS011;69202;45.498;-73.582;2023-05-14T08:11:05;1.00;;;0.60;;
79005;SDS011;69202;45.498;-73.582;2023-05-14T08:13:31;3.08;;;0.70;;
79005;SDS011;69202;45.498;-73.582;2023-05-14T08:15:57;1.50;;;0.70;;
79005;SDS011;69202;45.498;-73.582;2023-05-14T08:18:23;1.52;;;0.77;;
79005;SDS011;69202;45.498;-73.582;2023-05-14T08:20:49;0.90;;;0.35;;
79005;SDS011;69202;45.498;-73.582;2023-05-14T08:23:15;1.02;;;0.70;;
79005;SDS011;69202;45.498;-73.582;2023-05-14T08:25:41;0.90;;;0.60;;
79005;SDS011;69202;45.498;-73.582;2023-05-14T08:28:07;0.77;;;0.70;;
79005;SDS011;69202;45.498;-73.582;2023-05-14T08:30:33;1.98;;;0.68;;
79005;SDS011;69202;45.498;-73.582;2023-05-14T08:32:59;0.88;;;0.60;;
79005;SDS011;69202;45.498;-73.582;2023-05-14T08:35:25;1.83;;;0.70;;
79005;SDS011;69202;45.498;-73.582;2023-05-14T08:37:50;0.63;;;0.60;;
79005;SDS011;69202;45.498;-73.582;2023-05-14T08:40:16;1.00;;;0.77;;
79005;SDS011;69202;45.498;-73.582;2023-05-14T08:42:43;1.67;;;0.68;;
79005;SDS011;69202;45.498;-73.582;2023-05-14T08:45:19;0.80;;;0.73;;
79005;SDS011;69202;45.498;-73.582;2023-05-14T08:47:47;1.08;;;0.70;;
79005;SDS011;69202;45.498;-73.582;2023-05-14T08:50:14;3.03;;;0.70;;
79005;SDS011;69202;45.498;-73.582;2023-05-14T08:52:41;0.70;;;0.70;;
79005;SDS011;69202;45.498;-73.582;2023-05-14T08:55:08;3.13;;;0.73;;
79005;SDS011;69202;45.498;-73.582;2023-05-14T08:57:35;0.93;;;0.85;;
79005;SDS011;69202;45.498;-73.582;2023-05-14T09:00:02;0.80;;;0.73;;
79005;SDS011;69202;45.498;-73.582;2023-05-14T09:02:40;0.80;;;0.80;;
79005;SDS011;69202;45.498;-73.582;2023-05-14T09:05:06;0.70;;;0.70;;
79005;SDS011;69202;45.498;-73.582;2023-05-14T09:07:36;1.55;;;0.88;;
79005;SDS011;69202;45.498;-73.582;2023-05-14T09:10:02;1.05;;;0.68;;
79005;SDS011;69202;45.498;-73.582;2023-05-14T09:12:29;1.10;;;0.80;;
79005;SDS011;69202;45.498;-73.582;2023-05-14T09:14:55;3.80;;;0.73;;
79005;SDS011;69202;45.498;-73.582;2023-05-14T09:17:21;1.95;;;0.75;;
79005;SDS011;69202;45.498;-73.582;2023-05-14T09:19:51;2.08;;;0.63;;
79005;SDS011;69202;45.498;-73.582;2023-05-14T09:22:18;0.88;;;0.68;;
79005;SDS011;69202;45.498;-73.582;2023-05-14T09:24:44;0.77;;;0.65;;
79005;SDS011;69202;45.498;-73.582;2023-05-14T09:27:19;1.48;;;0.93;;
79005;SDS011;69202;45.498;-73.582;2023-05-14T09:29:46;1.27;;;0.70;;
79005;SDS011;69202;45.498;-73.582;2023-05-14T09:32:12;0.82;;;0.70;;
79005;SDS011;69202;45.498;-73.582;2023-05-14T09:34:38;0.80;;;0.80;;
79005;SDS011;69202;45.498;-73.582;2023-05-14T09:37:06;1.48;;;1.02;;
79005;SDS011;69202;45.498;-73.582;2023-05-14T09:39:34;0.80;;;0.70;;
79005;SDS011;69202;45.498;-73.582;2023-05-14T09:42:01;1.30;;;0.70;;
79005;SDS011;69202;45.498;-73.582;2023-05-14T09:44:27;2.25;;;0.80;;
79005;SDS011;69202;45.498;-73.582;2023-05-14T09:46:54;0.68;;;0.60;;
79005;SDS011;69202;45.498;-73.582;2023-05-14T09:49:20;1.45;;;0.60;;
79005;SDS011;69202;45.498;-73.582;2023-05-14T09:51:47;1.83;;;0.82;;
79005;SDS011;69202;45.498;-73.582;2023-05-14T09:54:13;1.05;;;0.85;;
79005;SDS011;69202;45.498;-73.582;2023-05-14T09:56:40;1.98;;;0.70;;
79005;SDS011;69202;45.498;-73.582;2023-05-14T09:59:07;1.98;;;0.63;;
79005;SDS011;69202;45.498;-73.582;2023-05-14T10:01:33;0.77;;;0.73;;
79005;SDS011;69202;45.498;-73.582;2023-05-14T10:04:02;2.83;;;0.70;;
79005;SDS011;69202;45.498;-73.582;2023-05-14T10:06:32;1.38;;;0.93;;
79005;SDS011;69202;45.498;-73.582;2023-05-14T10:09:01;1.83;;;0.70;;
79005;SDS011;69202;45.498;-73.582;2023-05-14T10:11:30;1.23;;;0.80;;
79005;SDS011;69202;45.498;-73.582;2023-05-14T10:14:08;1.65;;;0.70;;
79005;SDS011;69202;45.498;-73.582;2023-05-14T10:16:46;1.95;;;1.58;;
79005;SDS011;69202;45.498;-73.582;2023-05-14T10:19:15;3.90;;;0.82;;
79005;SDS011;69202;45.498;-73.582;2023-05-14T10:21:47;0.93;;;0.70;;
79005;SDS011;69202;45.498;-73.582;2023-05-14T10:24:17;1.57;;;0.70;;
79005;SDS011;69202;45.498;-73.582;2023-05-14T10:26:44;0.85;;;0.60;;
79005;SDS011;69202;45.498;-73.582;2023-05-14T10:29:11;1.55;;;0.80;;
79005;SDS011;69202;45.498;-73.582;2023-05-14T10:31:49;2.92;;;0.90;;
79005;SDS011;69202;45.498;-73.582;2023-05-14T10:39:39;1.02;;;0.77;;
79005;SDS011;69202;45.498;-73.582;2023-05-14T10:42:16;1.25;;;0.73;;
79005;SDS011;69202;45.498;-73.582;2023-05-14T10:44:51;0.90;;;0.70;;
79005;SDS011;69202;45.498;-73.582;2023-05-14T10:47:20;1.35;;;0.95;;
79005;SDS011;69202;45.498;-73.582;2023-05-14T10:49:47;1.20;;;0.82;;
79005;SDS011;69202;45.498;-73.582;2023-05-14T10:52:15;2.00;;;0.80;;
79005;SDS011;69202;45.498;-73.582;2023-05-14T10:54:49;1.45;;;0.70;;
79005;SDS011;69202;45.498;-73.582;2023-05-14T10:57:20;1.45;;;0.75;;
79005;SDS011;69202;45.498;-73.582;2023-05-14T10:59:56;1.95;;;1.00;;
79005;SDS011;69202;45.498;-73.582;2023-05-14T11:02:30;1.50;;;1.05;;
79005;SDS011;69202;45.498;-73.582;2023-05-14T11:05:01;1.05;;;0.73;;
79005;SDS011;69202;45.498;-73.582;2023-05-14T11:07:36;1.05;;;0.80;;
79005;SDS011;69202;45.498;-73.582;2023-05-14T11:10:05;1.10;;;0.95;;
79005;SDS011;69202;45.498;-73.582;2023-05-14T11:12:33;1.27;;;1.15;;
79005;SDS011;69202;45.498;-73.582;2023-05-14T11:15:06;1.10;;;0.93;;
79005;SDS011;69202;45.498;-73.582;2023-05-14T11:17:34;3.65;;;0.80;;
79005;SDS011;69202;45.498;-73.582;2023-05-14T11:20:02;0.70;;;0.70;;
79005;SDS011;69202;45.498;-73.582;2023-05-14T11:22:29;1.10;;;0.82;;
79005;SDS011;69202;45.498;-73.582;2023-05-14T11:24:55;0.98;;;0.88;;
79005;SDS011;69202;45.498;-73.582;2023-05-14T11:27:21;1.98;;;0.93;;
79005;SDS011;69202;45.498;-73.582;2023-05-14T11:29:48;2.53;;;1.05;;
79005;SDS011;69202;45.498;-73.582;2023-05-14T11:32:15;1.52;;;0.90;;
79005;SDS011;69202;45.498;-73.582;2023-05-14T11:34:42;2.47;;;1.10;;
79005;SDS011;69202;45.498;-73.582;2023-05-14T11:37:09;2.05;;;0.90;;
79005;SDS011;69202;45.498;-73.582;2023-05-14T11:39:44;1.45;;;0.90;;
79005;SDS011;69202;45.498;-73.582;2023-05-14T11:42:15;1.23;;;0.85;;
79005;SDS011;69202;45.498;-73.582;2023-05-14T11:44:43;3.08;;;1.38;;
79005;SDS011;69202;45.498;-73.582;2023-05-14T11:47:13;1.73;;;0.85;;
79005;SDS011;69202;45.498;-73.582;2023-05-14T11:49:40;3.03;;;0.88;;
79005;SDS011;69202;45.498;-73.582;2023-05-14T11:52:06;2.83;;;1.05;;
79005;SDS011;69202;45.498;-73.582;2023-05-14T11:54:38;1.95;;;0.95;;
79005;SDS011;69202;45.498;-73.582;2023-05-14T11:57:38;0.88;;;0.80;;
79005;SDS011;69202;45.498;-73.582;2023-05-14T11:59:57;2.47;;;0.75;;
79005;SDS011;69202;45.498;-73.582;2023-05-14T12:02:23;1.75;;;0.90;;
79005;SDS011;69202;45.498;-73.582;2023-05-14T12:04:53;1.15;;;0.80;;
79005;SDS011;69202;45.498;-73.582;2023-05-14T12:07:19;3.28;;;0.90;;
79005;SDS011;69202;45.498;-73.582;2023-05-14T12:09:45;2.47;;;0.80;;
79005;SDS011;69202;45.498;-73.582;2023-05-14T12:12:19;2.10;;;0.80;;
79005;SDS011;69202;45.498;-73.582;2023-05-14T12:14:46;0.85;;;0.80;;
79005;SDS011;69202;45.498;-73.582;2023-05-14T12:17:15;1.25;;;0.77;;
79005;SDS011;69202;45.498;-73.582;2023-05-14T12:19:43;3.55;;;0.82;;
79005;SDS011;69202;45.498;-73.582;2023-05-14T12:22:10;1.05;;;0.90;;
79005;SDS011;69202;45.498;-73.582;2023-05-14T12:24:38;1.02;;;0.73;;
79005;SDS011;69202;45.498;-73.582;2023-05-14T12:27:05;1.05;;;0.80;;
79005;SDS011;69202;45.498;-73.582;2023-05-14T12:29:36;1.48;;;0.80;;
79005;SDS011;69202;45.498;-73.582;2023-05-14T12:32:06;2.63;;;0.77;;
79005;SDS011;69202;45.498;-73.582;2023-05-14T12:34:34;1.17;;;0.90;;
79005;SDS011;69202;45.498;-73.582;2023-05-14T12:37:00;1.77;;;0.82;;
79005;SDS011;69202;45.498;-73.582;2023-05-14T12:39:26;0.93;;;0.82;;
79005;SDS011;69202;45.498;-73.582;2023-05-14T12:41:52;0.80;;;0.70;;
79005;SDS011;69202;45.498;-73.582;2023-05-14T12:44:18;1.75;;;0.90;;
79005;SDS011;69202;45.498;-73.582;2023-05-14T12:46:46;2.95;;;0.80;;
79005;SDS011;69202;45.498;-73.582;2023-05-14T12:49:12;1.25;;;0.90;;
79005;SDS011;69202;45.498;-73.582;2023-05-14T12:51:38;8.38;;;1.80;;
79005;SDS011;69202;45.498;-73.582;2023-05-14T12:54:04;2.45;;;0.73;;
79005;SDS011;69202;45.498;-73.582;2023-05-14T12:56:30;1.75;;;1.10;;
79005;SDS011;69202;45.498;-73.582;2023-05-14T12:58:56;1.20;;;0.80;;
79005;SDS011;69202;45.498;-73.582;2023-05-14T13:01:22;2.22;;;1.02;;
79005;SDS011;69202;45.498;-73.582;2023-05-14T13:03:48;1.17;;;0.82;;
79005;SDS011;69202;45.498;-73.582;2023-05-14T13:06:15;2.47;;;0.80;;
79005;SDS011;69202;45.498;-73.582;2023-05-14T13:08:41;1.55;;;1.00;;
79005;SDS011;69202;45.498;-73.582;2023-05-14T13:11:07;2.00;;;1.00;;
79005;SDS011;69202;45.498;-73.582;2023-05-14T13:13:33;1.58;;;0.98;;
79005;SDS011;69202;45.498;-73.582;2023-05-14T13:15:58;1.27;;;0.93;;
79005;SDS011;69202;45.498;-73.582;2023-05-14T13:18:25;1.27;;;1.00;;
79005;SDS011;69202;45.498;-73.582;2023-05-14T13:20:51;1.75;;;0.73;;
79005;SDS011;69202;45.498;-73.582;2023-05-14T13:23:16;1.05;;;0.90;;
79005;SDS011;69202;45.498;-73.582;2023-05-14T13:25:42;0.93;;;0.82;;
79005;SDS011;69202;45.498;-73.582;2023-05-14T13:28:08;1.27;;;0.70;;
79005;SDS011;69202;45.498;-73.582;2023-05-14T13:30:34;0.70;;;0.70;;
79005;SDS011;69202;45.498;-73.582;2023-05-14T13:33:00;1.38;;;0.80;;
79005;SDS011;69202;45.498;-73.582;2023-05-14T13:35:26;1.00;;;0.90;;
79005;SDS011;69202;45.498;-73.582;2023-05-14T13:37:52;1.33;;;0.80;;
79005;SDS011;69202;45.498;-73.582;2023-05-14T13:40:18;1.00;;;0.80;;
79005;SDS011;69202;45.498;-73.582;2023-05-14T13:42:43;1.00;;;0.90;;
79005;SDS011;69202;45.498;-73.582;2023-05-14T13:45:09;1.25;;;0.77;;
79005;SDS011;69202;45.498;-73.582;2023-05-14T13:47:37;1.42;;;0.98;;
79005;SDS011;69202;45.498;-73.582;2023-05-14T13:50:03;5.55;;;0.80;;
79005;SDS011;69202;45.498;-73.582;2023-05-14T13:52:29;0.88;;;0.70;;
79005;SDS011;69202;45.498;-73.582;2023-05-14T13:54:55;3.92;;;0.90;;
79005;SDS011;69202;45.498;-73.582;2023-05-14T13:57:21;4.75;;;1.00;;
79005;SDS011;69202;45.498;-73.582;2023-05-14T13:59:47;1.20;;;0.80;;
79005;SDS011;69202;45.498;-73.582;2023-05-14T14:02:13;1.55;;;0.90;;
79005;SDS011;69202;45.498;-73.582;2023-05-14T14:04:39;1.00;;;0.90;;
79005;SDS011;69202;45.498;-73.582;2023-05-14T14:07:05;1.00;;;0.90;;
79005;SDS011;69202;45.498;-73.582;2023-05-14T14:09:31;1.20;;;0.95;;
79005;SDS011;69202;45.498;-73.582;2023-05-14T14:12:01;2.75;;;0.88;;
79005;SDS011;69202;45.498;-73.582;2023-05-14T14:14:28;0.93;;;0.75;;
79005;SDS011;69202;45.498;-73.582;2023-05-14T14:16:54;1.15;;;0.93;;
79005;SDS011;69202;45.498;-73.582;2023-05-14T14:19:19;2.55;;;0.90;;
79005;SDS011;69202;45.498;-73.582;2023-05-14T14:21:45;1.00;;;0.90;;
79005;SDS011;69202;45.498;-73.582;2023-05-14T14:24:11;1.90;;;1.23;;
79005;SDS011;69202;45.498;-73.582;2023-05-14T14:26:37;0.85;;;0.80;;
79005;SDS011;69202;45.498;-73.582;2023-05-14T14:29:04;1.85;;;0.90;;
79005;SDS011;69202;45.498;-73.582;2023-05-14T14:31:30;2.45;;;0.88;;